Time;durP1;ratioP1;P1;durP2;ratioP2;P2;SDS_P1;SDS_P2;PMS_P1;PMS_P2;Temp;Humidity;BMP_temperature;BMP_pressure;BME280_temperature;BME280_humidity;BME280_pressure;Samples;Min_cycle;Max_cycle;Signal;HPM_P1;HPM_P2
2022/05/03 00:02:27;;;;;;;2.80;1.42;;;11.30;70.70;;;;;;5096372;28;20023;-87
2022/05/03 00:05:10;;;;;;;2.35;1.48;;;11.20;70.30;;;;;;5031653;28;20039;-87
2022/05/03 00:07:55;;;;;;;2.40;1.33;;;11.10;70.50;;;;;;5014722;28;20120;-87
2022/05/03 00:10:33;;;;;;;1.52;1.42;;;11.10;70.70;;;;;;5055288;28;20086;-86
2022/05/03 00:13:08;;;;;;;1.42;1.33;;;11.10;70.70;;;;;;5072154;28;20031;-87
2022/05/03 00:15:48;;;;;;;;;;;;;;;;;;;;;
2022/05/03 00:18:25;;;;;;;2.27;1.50;;;11.00;70.90;;;;;;5073971;28;20348;-86
2022/05/03 00:20:58;;;;;;;1.80;1.30;;;11.00;71.10;;;;;;5076480;28;20024;-86
2022/05/03 00:23:25;;;;;;;2.92;1.52;;;11.00;71.30;;;;;;5076647;28;20021;-86
2022/05/03 00:26:04;;;;;;;1.95;1.75;;;11.00;71.50;;;;;;5077132;28;20139;-86
2022/05/03 00:28:30;;;;;;;1.80;1.65;;;11.00;71.80;;;;;;5076344;28;20020;-89
2022/05/03 00:31:00;;;;;;;2.35;1.40;;;10.90;71.80;;;;;;5059326;28;20546;-86
2022/05/03 00:33:33;;;;;;;2.10;1.50;;;10.90;72.00;;;;;;5076152;28;20112;-87
2022/05/03 00:35:59;;;;;;;2.20;1.80;;;10.80;72.00;;;;;;5076229;28;20029;-86
2022/05/03 00:38:35;;;;;;;3.40;1.88;;;10.80;72.20;;;;;;5075928;28;20082;-86
2022/05/03 00:41:18;;;;;;;2.85;1.48;;;10.80;72.40;;;;;;5076467;28;20081;-86
2022/05/03 00:43:51;;;;;;;2.13;1.80;;;10.80;72.70;;;;;;5059143;28;20032;-87
2022/05/03 00:46:22;;;;;;;2.42;1.83;;;10.70;72.70;;;;;;5075407;28;20127;-86
2022/05/03 00:49:19;;;;;;;1.55;1.35;;;10.80;72.80;;;;;;5075920;28;20433;-86
2022/05/03 00:52:07;;;;;;;3.42;2.05;;;10.70;72.90;;;;;;5076042;28;20364;-87
2022/05/03 00:55:11;;;;;;;2.10;1.70;;;10.70;73.00;;;;;;5075009;28;20024;-87
2022/05/03 00:57:55;;;;;;;2.63;1.75;;;10.70;73.10;;;;;;5070540;28;20488;-86
2022/05/03 01:00:34;;;;;;;3.60;2.10;;;10.70;73.10;;;;;;5075502;28;20024;-86
2022/05/03 01:03:26;;;;;;;2.30;1.75;;;10.70;73.10;;;;;;5075834;28;20411;-86
2022/05/03 01:06:18;;;;;;;1.83;1.67;;;10.70;73.30;;;;;;5075616;28;20445;-87
2022/05/03 01:09:07;;;;;;;3.80;2.08;;;10.60;73.30;;;;;;5079694;28;20021;-87
2022/05/03 01:11:53;;;;;;;2.33;2.13;;;10.60;73.50;;;;;;5099287;28;20030;-87
2022/05/03 01:14:37;;;;;;;3.42;2.10;;;10.60;73.60;;;;;;5099643;28;20026;-87
2022/05/03 01:17:10;;;;;;;2.80;1.85;;;10.60;73.50;;;;;;5099665;28;20439;-87
2022/05/03 01:20:04;;;;;;;3.13;2.17;;;10.60;73.70;;;;;;5099709;28;20111;-90
2022/05/03 01:23:15;;;;;;;2.83;2.20;;;10.60;73.90;;;;;;5099772;28;20022;-87
2022/05/03 01:25:53;;;;;;;2.45;2.17;;;10.60;74.00;;;;;;5099891;28;20054;-87
2022/05/03 01:28:41;;;;;;;2.88;1.85;;;10.50;74.00;;;;;;5109143;28;20019;-87
2022/05/03 01:31:17;;;;;;;2.20;2.00;;;10.50;74.10;;;;;;5134317;27;20045;-87
2022/05/03 01:33:56;;;;;;;3.72;1.92;;;10.50;74.40;;;;;;5123962;28;20023;-86
2022/05/03 01:36:47;;;;;;;2.20;1.80;;;10.40;74.60;;;;;;5120844;28;20475;-85
2022/05/03 01:39:25;;;;;;;2.80;2.33;;;10.40;75.00;;;;;;5101033;28;20412;-87
2022/05/03 01:41:56;;;;;;;3.03;1.98;;;10.30;75.20;;;;;;5098852;28;20387;-87
2022/05/03 01:44:31;;;;;;;2.92;2.00;;;10.20;75.30;;;;;;5098754;28;20488;-87
2022/05/03 01:47:38;;;;;;;;;;;;;;;;;;;;;
2022/05/03 01:50:36;;;;;;;2.22;1.95;;;10.20;75.80;;;;;;5116898;28;20020;-86
2022/05/03 01:53:51;;;;;;;3.17;2.13;;;10.10;76.00;;;;;;5116728;28;20019;-87
2022/05/03 01:56:41;;;;;;;2.50;1.92;;;10.10;76.20;;;;;;5098515;28;20051;-87
2022/05/03 01:59:47;;;;;;;2.80;2.05;;;10.00;76.30;;;;;;5098357;28;20460;-87
2022/05/03 02:02:45;;;;;;;3.28;2.10;;;10.00;76.50;;;;;;5098675;28;20420;-88
2022/05/03 02:05:20;;;;;;;4.57;2.08;;;9.90;76.50;;;;;;5061796;28;20041;-87
2022/05/03 02:08:00;;;;;;;2.92;2.30;;;9.90;76.80;;;;;;5098331;28;20067;-87
2022/05/03 02:10:56;;;;;;;3.35;2.03;;;9.80;77.10;;;;;;5097904;28;20052;-88
2022/05/03 02:17:04;;;;;;;3.78;2.45;;;9.80;77.40;;;;;;5116760;28;20183;-87
2022/05/03 02:19:59;;;;;;;6.15;3.38;;;9.70;77.60;;;;;;5098515;28;20027;-88
2022/05/03 02:22:38;;;;;;;3.78;3.05;;;9.70;77.80;;;;;;5063178;28;20059;-88
2022/05/03 02:25:09;;;;;;;3.83;2.90;;;9.70;77.70;;;;;;5115891;28;20031;-88
2022/05/03 02:28:01;;;;;;;4.28;3.05;;;9.70;77.80;;;;;;5097876;28;20088;-87
2022/05/03 02:30:38;;;;;;;3.25;2.83;;;9.70;77.70;;;;;;5115779;28;20028;-87
2022/05/03 02:33:22;;;;;;;4.00;3.10;;;9.70;77.90;;;;;;5097761;28;20032;-87
2022/05/03 02:36:00;;;;;;;5.60;3.22;;;9.70;78.10;;;;;;5097598;28;20386;-87
2022/05/03 02:38:40;;;;;;;4.10;3.38;;;9.60;78.30;;;;;;5097789;28;20023;-88
2022/05/03 02:41:18;;;;;;;4.13;3.00;;;9.60;78.60;;;;;;5097359;28;20031;-87
2022/05/03 02:43:50;;;;;;;5.03;3.40;;;9.50;78.60;;;;;;5097517;28;20023;-87
2022/05/03 02:46:21;;;;;;;;;;;9.50;78.80;;;;;;5097397;28;20080;-87
2022/05/03 02:49:20;;;;;;;;;;;9.50;78.90;;;;;;5098090;28;19992;-88
2022/05/03 02:52:06;;;;;;;4.00;3.10;;;9.50;78.70;;;;;;5073037;28;19965;-89
2022/05/03 02:55:05;;;;;;;5.90;2.95;;;9.50;78.60;;;;;;5097495;28;20060;-87
2022/05/03 02:57:44;;;;;;;6.25;3.35;;;9.50;78.70;;;;;;5097613;28;20084;-86
2022/05/03 03:03:31;;;;;;;4.43;3.33;;;9.50;79.00;;;;;;5132974;28;20027;-87
2022/05/03 03:06:09;;;;;;;;;;;;;;;;;;;;;
2022/05/03 03:08:56;;;;;;;4.65;3.30;;;9.40;79.40;;;;;;5138665;27;20059;-87
2022/05/03 03:11:48;;;;;;;3.70;2.92;;;9.40;79.70;;;;;;5114347;28;20099;-87
2022/05/03 03:14:39;;;;;;;4.57;3.40;;;9.30;79.80;;;;;;5098728;28;20024;-87
2022/05/03 03:17:10;;;;;;;4.75;3.05;;;9.30;80.10;;;;;;5086375;28;20035;-87
2022/05/03 03:20:02;;;;;;;5.00;3.57;;;9.20;80.20;;;;;;5097043;28;20391;-87
2022/05/03 03:22:37;;;;;;;4.88;2.83;;;9.10;80.40;;;;;;5096873;28;20265;-88
2022/05/03 03:25:05;;;;;;;3.65;3.13;;;9.10;80.80;;;;;;5096884;28;20051;-87
2022/05/03 03:27:57;;;;;;;5.38;3.33;;;9.00;81.00;;;;;;5096221;28;20020;-87
2022/05/03 03:30:26;;;;;;;3.35;2.97;;;9.00;81.40;;;;;;5115137;28;20460;-87
2022/05/03 03:32:56;;;;;;;4.35;3.22;;;8.90;81.50;;;;;;5096501;28;20024;-87
2022/05/03 03:35:30;;;;;;;4.13;3.40;;;8.90;82.30;;;;;;5096495;28;20073;-87
2022/05/03 03:38:03;;;;;;;5.95;3.45;;;8.90;81.90;;;;;;5096586;28;20024;-87
2022/05/03 03:40:40;;;;;;;4.40;3.50;;;8.90;82.00;;;;;;5096418;28;20076;-86
2022/05/03 03:43:09;;;;;;;5.03;3.60;;;8.80;82.10;;;;;;5096420;28;20038;-87
2022/05/03 03:45:35;;;;;;;4.80;3.30;;;8.80;82.30;;;;;;5096415;28;20026;-87
2022/05/03 03:48:07;;;;;;;6.30;3.90;;;8.70;82.30;;;;;;5079517;28;20039;-86
2022/05/03 03:50:44;;;;;;;;;;;;;;;;;;;;;
2022/05/03 03:53:16;;;;;;;4.38;3.65;;;8.60;82.80;;;;;;5114410;28;20046;-86
2022/05/03 03:55:45;;;;;;;5.40;3.50;;;8.60;83.10;;;;;;5080269;28;20023;-87
2022/05/03 03:58:14;;;;;;;5.40;3.63;;;8.50;83.30;;;;;;5096263;28;20421;-87
2022/05/03 04:00:41;;;;;;;5.45;3.70;;;8.50;83.50;;;;;;5095855;28;20047;-87
2022/05/03 04:03:15;;;;;;;5.55;3.55;;;8.50;83.60;;;;;;5095642;28;20032;-87
2022/05/03 04:05:44;;;;;;;6.53;3.88;;;8.50;83.80;;;;;;5080302;28;20027;-87
2022/05/03 04:08:09;;;;;;;5.68;3.72;;;8.40;83.80;;;;;;5095940;28;20418;-87
2022/05/03 04:10:35;;;;;;;5.72;4.05;;;8.40;84.00;;;;;;5095997;28;20134;-87
2022/05/03 04:13:06;;;;;;;5.75;4.10;;;8.40;84.20;;;;;;5114018;28;20028;-87
2022/05/03 04:15:41;;;;;;;5.82;3.80;;;8.40;84.40;;;;;;5079073;28;20074;-86
2022/05/03 04:18:14;;;;;;;6.20;4.30;;;8.30;84.50;;;;;;5078566;28;20475;-87
2022/05/03 04:20:40;;;;;;;5.53;4.05;;;8.30;84.60;;;;;;5080306;28;20028;-87
2022/05/03 04:23:09;;;;;;;4.72;3.70;;;8.30;84.70;;;;;;5095723;28;20047;-87
2022/05/03 04:25:42;;;;;;;6.53;4.20;;;8.30;84.80;;;;;;5096370;28;20463;-88
2022/05/03 04:28:11;;;;;;;5.03;3.72;;;8.30;84.90;;;;;;5096738;28;20032;-88
2022/05/03 04:30:46;;;;;;;5.80;4.22;;;8.30;85.10;;;;;;5096558;28;20126;-87
2022/05/03 04:33:14;;;;;;;6.38;4.28;;;8.20;85.20;;;;;;5096785;28;20049;-86
2022/05/03 04:36:00;;;;;;;5.75;4.32;;;8.20;85.50;;;;;;5081585;28;20032;-88
2022/05/03 04:38:35;;;;;;;7.03;4.35;;;8.20;85.90;;;;;;5104040;27;20014;-88
2022/05/03 04:41:05;;;;;;;7.18;4.50;;;8.10;86.50;;;;;;5120481;27;20007;-89
2022/05/03 04:43:45;;;;;;;5.20;3.75;;;8.10;86.20;;;;;;5120908;27;20034;-88
2022/05/03 04:46:16;;;;;;;6.25;4.28;;;8.20;86.40;;;;;;5111493;28;20031;-88
2022/05/03 04:48:55;;;;;;;;;;;;;;;;;;;;;
2022/05/03 04:51:40;;;;;;;7.10;4.47;;;8.20;86.70;;;;;;5114099;28;20028;-87
2022/05/03 04:54:11;;;;;;;6.43;4.28;;;8.20;86.90;;;;;;5080506;28;20056;-88
2022/05/03 04:56:45;;;;;;;6.35;4.72;;;8.20;86.90;;;;;;5080089;28;20486;-88
2022/05/03 04:59:11;;;;;;;7.40;4.78;;;8.20;87.00;;;;;;5095898;28;20059;-88
2022/05/03 05:01:37;;;;;;;7.80;4.90;;;8.30;87.10;;;;;;5095783;28;20043;-87
2022/05/03 05:04:08;;;;;;;6.53;4.95;;;8.40;86.90;;;;;;5095647;28;20055;-88
2022/05/03 05:06:33;;;;;;;;;;;8.50;86.80;;;;;;5098941;28;20035;-88
2022/05/03 05:08:59;;;;;;;7.53;5.30;;;8.60;86.60;;;;;;5095347;28;19999;-89
2022/05/03 05:11:51;;;;;;;;;;;;;;;;;;;;;
2022/05/03 05:14:20;;;;;;;7.55;5.43;;;8.60;86.50;;;;;;5097349;28;20030;-89
2022/05/03 05:17:02;;;;;;;6.28;5.32;;;8.70;86.40;;;;;;5097648;28;20118;-91
2022/05/03 05:19:39;;;;;;;7.10;4.95;;;8.70;86.40;;;;;;5097902;28;20031;-90
2022/05/03 05:22:42;;;;;;;;;;;;;;;;;;;;;
2022/05/03 05:25:16;;;;;;;6.40;4.20;;;8.80;86.30;;;;;;5102367;28;20080;-91
2022/05/03 05:27:59;;;;;;;6.35;4.53;;;8.90;86.10;;;;;;5099328;28;20058;-90
2022/05/03 05:30:44;;;;;;;6.55;4.82;;;8.90;86.10;;;;;;5068135;28;20035;-90
2022/05/03 05:33:18;;;;;;;5.40;4.57;;;9.00;86.00;;;;;;5100026;28;20020;-90
2022/05/03 05:36:19;;;;;;;;;;;;;;;;;;;;;
2022/05/03 05:39:11;;;;;;;7.22;4.35;;;9.10;86.00;;;;;;5089490;28;20472;-89
2022/05/03 05:42:01;;;;;;;6.03;4.32;;;9.20;86.00;;;;;;5081663;28;20046;-90
2022/05/03 05:44:42;;;;;;;6.20;5.18;;;9.20;86.00;;;;;;5095708;28;20032;-90
2022/05/03 05:47:17;;;;;;;5.40;4.30;;;9.20;86.00;;;;;;5096730;28;20031;-89
2022/05/03 05:49:46;;;;;;;5.72;4.00;;;9.30;85.90;;;;;;5080893;28;20024;-90
2022/05/03 05:55:15;;;;;;;5.05;3.90;;;9.40;85.80;;;;;;5097142;28;20085;-89
2022/05/03 05:57:44;;;;;;;6.65;4.50;;;9.50;85.60;;;;;;5063259;28;20484;-90
2022/05/03 06:00:28;;;;;;;5.85;4.47;;;9.50;85.50;;;;;;5096119;28;20024;-89
2022/05/03 06:03:05;;;;;;;6.07;3.90;;;9.60;85.40;;;;;;5079818;28;20032;-89
2022/05/03 06:05:42;;;;;;;6.72;3.60;;;9.60;85.10;;;;;;5095358;28;20028;-89
2022/05/03 06:08:27;;;;;;;4.22;3.47;;;9.70;84.80;;;;;;5079762;28;20089;-90
2022/05/03 06:11:03;;;;;;;;;;;;;;;;;;;;;
2022/05/03 06:13:39;;;;;;;4.57;3.50;;;9.80;84.30;;;;;;5120205;28;20042;-90
2022/05/03 06:16:16;;;;;;;4.38;3.20;;;9.80;84.00;;;;;;5118750;28;20024;-90
2022/05/03 06:18:44;;;;;;;4.78;3.35;;;9.90;83.70;;;;;;5101904;28;20028;-90
2022/05/03 06:21:41;;;;;;;4.57;3.05;;;10.00;83.50;;;;;;5079807;28;20023;-89
2022/05/03 06:24:31;;;;;;;;;;;;;;;;;;;;;
2022/05/03 06:29:58;;;;;;;3.78;2.53;;;10.20;82.90;;;;;;5077721;28;20082;-90
2022/05/03 06:32:23;;;;;;;3.10;2.67;;;10.30;82.60;;;;;;5079196;28;20032;-90
2022/05/03 06:35:19;;;;;;;3.28;2.20;;;10.40;82.40;;;;;;5095730;28;20031;-90
2022/05/03 06:37:50;;;;;;;3.40;2.38;;;10.40;81.80;;;;;;5072038;28;20036;-89
2022/05/03 06:40:24;;;;;;;3.13;2.40;;;10.50;81.60;;;;;;5100235;28;20026;-90
2022/05/03 06:43:19;;;;;;;3.22;1.83;;;10.60;81.20;;;;;;5102763;28;20028;-89
2022/05/03 06:45:57;;;;;;;1.92;1.63;;;10.70;80.70;;;;;;5095672;28;20066;-91
2022/05/03 06:48:23;;;;;;;2.70;1.80;;;10.80;80.60;;;;;;5080864;28;20036;-90
2022/05/03 06:50:57;;;;;;;2.08;1.88;;;10.90;80.40;;;;;;5106659;28;20380;-91
2022/05/03 06:53:36;;;;;;;4.47;1.92;;;11.00;80.20;;;;;;5077971;28;20028;-91
2022/05/03 06:56:14;;;;;;;2.55;1.60;;;11.10;79.60;;;;;;5063565;28;20028;-89
2022/05/03 06:58:50;;;;;;;2.55;1.77;;;11.20;78.80;;;;;;5095372;28;20020;-90
2022/05/03 07:01:23;;;;;;;3.00;2.13;;;11.30;77.20;;;;;;5094420;28;20468;-90
2022/05/03 07:04:14;;;;;;;4.85;3.13;;;11.40;76.30;;;;;;5077316;28;20043;-90
2022/05/03 07:06:46;;;;;;;3.72;2.40;;;11.60;75.60;;;;;;5094004;28;20064;-92
2022/05/03 07:09:38;;;;;;;3.58;2.72;;;11.60;75.70;;;;;;5094204;28;20044;-91
2022/05/03 07:12:16;;;;;;;;;;;;;;;;;;;;;
2022/05/03 07:15:07;;;;;;;4.25;2.70;;;11.80;75.60;;;;;;5094293;28;19908;-89
2022/05/03 07:24:52;;;;;;;4.13;2.90;;;12.10;75.60;;;;;;5095492;28;20085;-89
2022/05/03 07:27:20;;;;;;;3.70;2.38;;;12.20;75.50;;;;;;5078841;28;20032;-91
2022/05/03 07:30:16;;;;;;;;;;;;;;;;;;;;;
2022/05/03 07:33:26;;;;;;;3.25;2.67;;;12.40;74.70;;;;;;5095021;28;20482;-90
2022/05/03 07:35:59;;;;;;;2.30;2.05;;;12.40;74.70;;;;;;5094780;28;20059;-90
2022/05/03 07:38:42;;;;;;;;;;;;;;;;;;;;;
2022/05/03 07:41:20;;;;;;;3.90;2.30;;;12.60;74.10;;;;;;5094998;28;20024;-90
2022/05/03 07:43:48;;;;;;;5.43;2.60;;;12.60;74.10;;;;;;5095233;28;20494;-90
2022/05/03 07:46:26;;;;;;;;;;;;;;;;;;;;;
2022/05/03 07:48:56;;;;;;;2.33;2.13;;;12.80;73.40;;;;;;5096083;28;20123;-91
2022/05/03 07:51:34;;;;;;;4.28;2.60;;;12.90;73.40;;;;;;5086033;28;20031;-91
2022/05/03 07:54:05;;;;;;;2.78;2.38;;;12.90;72.70;;;;;;5109030;28;20070;-90
2022/05/03 07:56:50;;;;;;;;;;;;;;;;;;;;;
2022/05/03 07:59:28;;;;;;;3.28;2.47;;;13.00;72.80;;;;;;5116898;28;20017;-89
2022/05/03 08:02:31;;;;;;;4.82;3.00;;;13.20;73.00;;;;;;5089190;28;20032;-91
2022/05/03 08:05:46;;;;;;;;;;;;;;;;;;;;;
2022/05/03 08:08:37;;;;;;;2.92;2.40;;;13.20;72.70;;;;;;5094926;28;20032;-90
2022/05/03 08:18:24;;;;;;;;;;;;;;;;;;;;;
2022/05/03 08:21:11;;;;;;;;;;;;;;;;;;;;;
2022/05/03 08:24:25;;;;;;;;;;;;;;;;;;;;;
2022/05/03 08:27:06;;;;;;;;;;;;;;;;;;;;;
2022/05/03 08:30:04;;;;;;;2.65;2.45;;;13.80;72.60;;;;;;5094223;28;20034;-91
2022/05/03 08:42:37;;;;;;;3.72;2.60;;;14.20;72.90;;;;;;5098408;28;20032;-90
2022/05/03 08:45:20;;;;;;;3.30;3.00;;;14.30;72.90;;;;;;5064372;28;20468;-90
2022/05/03 08:47:49;;;;;;;3.17;2.60;;;14.30;72.70;;;;;;5081470;28;20558;-90
2022/05/03 08:53:40;;;;;;;;;;;14.50;72.40;;;;;;5097724;28;20115;-90
2022/05/03 08:56:48;;;;;;;4.25;2.88;;;14.50;72.30;;;;;;5097654;28;19904;-91
2022/05/03 08:59:52;;;;;;;4.60;3.15;;;14.60;72.40;;;;;;5081281;28;20024;-91
2022/05/03 09:03:17;;;;;;;4.95;3.58;;;14.70;72.10;;;;;;5096901;28;20094;-90
2022/05/03 09:05:54;;;;;;;3.80;3.05;;;14.80;71.70;;;;;;5096980;28;20028;-90
2022/05/03 09:09:09;;;;;;;4.18;3.25;;;14.90;71.80;;;;;;5081226;28;20032;-91
2022/05/03 09:12:33;;;;;;;;;;;;;;;;;;;;;
2022/05/03 09:15:05;;;;;;;;;;;;;;;;;;;;;
2022/05/03 09:17:47;;;;;;;4.25;3.17;;;15.20;71.80;;;;;;5097950;28;20028;-90
2022/05/03 09:24:09;;;;;;;;;;;;;;;;;;;;;
2022/05/03 09:27:34;;;;;;;;;;;;;;;;;;;;;
2022/05/03 09:30:04;;;;;;;5.20;3.80;;;15.80;71.30;;;;;;5093882;28;20426;-91
2022/05/03 09:33:15;;;;;;;;;;;;;;;;;;;;;
2022/05/03 09:36:24;;;;;;;3.58;3.05;;;15.90;71.00;;;;;;5107476;28;20101;-90
2022/05/03 09:39:37;;;;;;;;;;;;;;;;;;;;;
2022/05/03 09:42:35;;;;;;;;;;;;;;;;;;;;;
2022/05/03 09:45:05;;;;;;;5.68;3.45;;;16.00;71.10;;;;;;5116328;28;20012;-88
2022/05/03 09:48:02;;;;;;;4.97;3.38;;;16.10;71.20;;;;;;5105244;28;20135;-91
2022/05/03 09:53:47;;;;;;;;;;;;;;;;;;;;;
2022/05/03 09:56:26;;;;;;;;;;;;;;;;;;;;;
2022/05/03 09:59:16;;;;;;;;;;;;;;;;;;;;;
2022/05/03 10:01:53;;;;;;;4.32;3.65;;;16.40;70.90;;;;;;5097124;28;20026;-91
2022/05/03 10:08:18;;;;;;;;;;;;;;;;;;;;;
2022/05/03 10:11:23;;;;;;;;;;;;;;;;;;;;;
2022/05/03 10:23:35;;;;;;;;;;;;;;;;;;;;;
2022/05/03 10:27:10;;;;;;;6.63;4.32;;;16.60;70.20;;;;;;5082066;28;20031;-90
2022/05/03 10:30:28;;;;;;;;;;;;;;;;;;;;;
2022/05/03 10:33:35;;;;;;;;;;;;;;;;;;;;;
2022/05/03 10:37:07;;;;;;;;;;;;;;;;;;;;;
2022/05/03 10:39:56;;;;;;;;;;;16.80;69.90;;;;;;5116466;28;20016;-90
2022/05/03 10:43:21;;;;;;;;;;;;;;;;;;;;;
2022/05/03 10:46:23;;;;;;;5.70;4.18;;;16.80;70.30;;;;;;5085988;28;20031;-90
2022/05/03 10:49:44;;;;;;;4.22;3.72;;;16.90;70.50;;;;;;5018542;28;20037;-90
2022/05/03 10:53:10;;;;;;;;;;;;;;;;;;;;;
2022/05/03 10:56:20;;;;;;;;;;;;;;;;;;;;;
2022/05/03 10:59:40;;;;;;;;;;;;;;;;;;;;;
2022/05/03 11:02:09;;;;;;;7.10;5.28;;;17.20;70.50;;;;;;4955219;28;20034;-90
2022/05/03 11:15:25;;;;;;;7.22;5.80;;;17.10;70.10;;;;;;5095209;28;20024;-90
2022/05/03 11:21:26;;;;;;;6.07;4.05;;;17.10;70.20;;;;;;5110431;28;19903;-90
2022/05/03 11:27:59;;;;;;;;;;;;;;;;;;;;;
2022/05/03 11:30:42;;;;;;;;;;;;;;;;;;;;;
2022/05/03 11:33:28;;;;;;;;;;;;;;;;;;;;;
2022/05/03 11:36:19;;;;;;;6.53;5.00;;;17.40;70.00;;;;;;5139344;27;20023;-90
2022/05/03 11:39:10;;;;;;;6.93;5.20;;;17.50;69.70;;;;;;5111869;28;20028;-89
2022/05/03 11:42:06;;;;;;;;;;;;;;;;;;;;;
2022/05/03 11:48:42;;;;;;;;;;;;;;;;;;;;;
2022/05/03 11:57:46;;;;;;;3.97;3.58;;;17.60;69.40;;;;;;5115290;28;20038;-90
2022/05/03 12:00:27;;;;;;;;;;;;;;;;;;;;;
2022/05/03 12:03:01;;;;;;;5.20;4.28;;;17.70;69.80;;;;;;5115059;28;20045;-88
2022/05/03 12:05:50;;;;;;;;;;;;;;;;;;;;;
2022/05/03 12:12:42;;;;;;;4.85;3.65;;;18.00;69.80;;;;;;5089538;28;20097;-89
2022/05/03 12:14:44;;;;;;;;;;;;;;;;;;;;;
2022/05/03 12:17:16;;;;;;;6.03;4.47;;;18.10;69.80;;;;;;5118817;28;20463;-88
2022/05/03 12:19:59;;;;;;;4.97;4.13;;;18.10;69.90;;;;;;5100754;28;20050;-88
2022/05/03 12:22:34;;;;;;;5.20;4.65;;;18.10;70.00;;;;;;5100759;28;20123;-88
2022/05/03 12:25:15;;;;;;;;;;;;;;;;;;;;;
2022/05/03 12:28:04;;;;;;;5.45;4.28;;;18.10;70.00;;;;;;5119148;28;20036;-88
2022/05/03 12:30:50;;;;;;;4.65;3.40;;;18.00;69.90;;;;;;5118154;28;20077;-88
2022/05/03 12:33:16;;;;;;;3.35;2.47;;;18.00;69.80;;;;;;5100325;28;20030;-88
2022/05/03 12:35:57;;;;;;;;;;;;;;;;;;;;;
2022/05/03 12:38:39;;;;;;;;;;;;;;;;;;;;;
2022/05/03 12:41:10;;;;;;;3.08;2.55;;;17.80;69.50;;;;;;5118131;28;20027;-88
2022/05/03 12:43:46;;;;;;;2.85;2.53;;;17.80;69.60;;;;;;5100178;28;20019;-88
2022/05/03 12:46:53;;;;;;;4.38;3.53;;;17.80;69.60;;;;;;5083526;28;20483;-88
2022/05/03 12:49:44;;;;;;;3.67;3.10;;;17.70;68.90;;;;;;5084726;28;20438;-88
2022/05/03 12:52:30;;;;;;;;;;;;;;;;;;;;;
2022/05/03 12:54:58;;;;;;;3.72;2.83;;;17.50;69.40;;;;;;5117838;28;20027;-88
2022/05/03 13:00:17;;;;;;;3.33;2.80;;;17.50;69.30;;;;;;5103804;28;20038;-88
2022/05/03 13:02:48;;;;;;;3.90;2.90;;;17.40;69.20;;;;;;5100010;28;20031;-88
2022/05/03 13:05:30;;;;;;;;;;;;;;;;;;;;;
2022/05/03 13:08:08;;;;;;;;;;;;;;;;;;;;;
2022/05/03 13:10:41;;;;;;;6.13;4.90;;;17.20;69.50;;;;;;5118236;28;20053;-88
2022/05/03 13:13:40;;;;;;;5.63;4.68;;;17.10;69.60;;;;;;5100864;28;20063;-89
2022/05/03 13:16:35;;;;;;;5.47;4.88;;;17.00;69.80;;;;;;5102855;28;20035;-89
2022/05/03 13:22:27;;;;;;;;;;;;;;;;;;;;;
2022/05/03 13:25:13;;;;;;;16.98;12.02;;;16.80;72.20;;;;;;5140440;28;20062;-88
2022/05/03 13:28:05;;;;;;;;;;;;;;;;;;;;;
2022/05/03 13:31:04;;;;;;;24.73;17.65;;;16.50;74.60;;;;;;5123680;28;20055;-88
2022/05/03 13:33:43;;;;;;;24.38;16.58;;;16.30;75.80;;;;;;5089289;28;20055;-87
2022/05/03 13:42:45;;;;;;;29.90;20.70;;;16.00;77.50;;;;;;5089436;28;20046;-89
2022/05/03 13:48:10;;;;;;;30.38;20.13;;;15.70;79.30;;;;;;5107589;28;20384;-88
2022/05/03 13:50:40;;;;;;;28.40;20.38;;;15.60;79.90;;;;;;5098618;28;20035;-88
2022/05/03 13:53:21;;;;;;;27.25;18.63;;;15.50;80.30;;;;;;5098672;28;20353;-87
2022/05/03 13:56:17;;;;;;;;;;;;;;;;;;;;;
2022/05/03 13:58:59;;;;;;;27.98;19.35;;;15.40;80.90;;;;;;5100446;28;20031;-88
2022/05/03 14:01:39;;;;;;;26.88;17.17;;;15.40;81.00;;;;;;5083491;28;20077;-88
2022/05/03 14:04:25;;;;;;;;;;;;;;;;;;;;;
2022/05/03 14:07:04;;;;;;;28.20;18.88;;;15.30;81.00;;;;;;5116496;28;20042;-88
2022/05/03 14:09:32;;;;;;;30.42;19.15;;;15.40;81.30;;;;;;5082150;28;20080;-88
2022/05/03 14:12:09;;;;;;;29.50;19.77;;;15.30;81.50;;;;;;5098359;28;20039;-88
2022/05/03 14:14:55;;;;;;;;;;;;;;;;;;;;;
2022/05/03 14:17:46;;;;;;;25.15;17.73;;;15.20;82.10;;;;;;5116179;28;20031;-87
2022/05/03 14:20:24;;;;;;;26.15;18.40;;;15.20;81.90;;;;;;5097760;28;20020;-88
2022/05/03 14:22:55;;;;;;;23.77;16.88;;;15.20;81.90;;;;;;5098049;28;20081;-88
2022/05/03 14:25:28;;;;;;;28.08;19.20;;;15.20;82.00;;;;;;5115542;28;20522;-88
2022/05/03 14:28:26;;;;;;;;;;;;;;;;;;;;;
2022/05/03 14:30:55;;;;;;;27.10;18.65;;;15.20;82.50;;;;;;5102478;28;20038;-88
2022/05/03 14:33:26;;;;;;;29.02;19.33;;;15.10;82.80;;;;;;5097623;28;20027;-88
2022/05/03 14:36:12;;;;;;;25.88;17.85;;;15.10;82.90;;;;;;5081378;28;20024;-88
2022/05/03 14:38:49;;;;;;;26.70;17.83;;;15.10;83.00;;;;;;5080767;28;20044;-88
2022/05/03 14:41:25;;;;;;;27.63;18.13;;;15.10;83.10;;;;;;5081026;28;20032;-88
2022/05/03 14:43:57;;;;;;;25.73;17.58;;;15.10;83.40;;;;;;5064695;28;20027;-88
2022/05/03 14:46:33;;;;;;;29.67;18.67;;;15.00;83.50;;;;;;5081052;28;20028;-88
2022/05/03 14:49:04;;;;;;;28.58;18.40;;;15.00;84.00;;;;;;5065865;28;20072;-88
2022/05/03 14:51:30;;;;;;;25.85;16.30;;;15.00;84.90;;;;;;5064597;28;20034;-88
2022/05/03 14:54:13;;;;;;;24.58;16.35;;;15.00;84.30;;;;;;5097075;28;20027;-89
2022/05/03 15:05:09;;;;;;;23.17;16.17;;;15.00;84.90;;;;;;5116599;28;20100;-88
2022/05/03 15:07:50;;;;;;;;;;;;;;;;;;;;;
2022/05/03 15:10:26;;;;;;;23.50;16.02;;;15.00;85.70;;;;;;5136808;27;20055;-90
2022/05/03 15:12:52;;;;;;;22.45;16.02;;;14.80;85.80;;;;;;5120572;28;20043;-89
2022/05/03 15:15:47;;;;;;;;;;;;;;;;;;;;;
2022/05/03 15:21:05;;;;;;;19.73;14.10;;;14.90;85.90;;;;;;5115380;28;20078;-88
2022/05/03 15:26:15;;;;;;;24.52;15.15;;;14.90;85.80;;;;;;5115185;28;20042;-87
2022/05/03 15:31:48;;;;;;;17.77;13.10;;;14.80;85.90;;;;;;5107298;28;20118;-87
2022/05/03 15:34:48;;;;;;;19.08;13.52;;;14.80;85.90;;;;;;5096963;28;20478;-89
2022/05/03 15:37:31;;;;;;;;;;;;;;;;;;;;;
2022/05/03 15:40:16;;;;;;;17.27;12.82;;;14.80;85.60;;;;;;5114976;28;20036;-88
2022/05/03 15:42:57;;;;;;;18.65;12.07;;;14.80;85.40;;;;;;5081667;28;20076;-88
2022/05/03 15:45:33;;;;;;;18.23;12.20;;;14.80;85.20;;;;;;5096869;28;20391;-89
2022/05/03 15:48:16;;;;;;;15.95;11.68;;;14.80;85.10;;;;;;5080023;28;20039;-87
2022/05/03 15:50:53;;;;;;;16.92;11.77;;;14.80;85.00;;;;;;5095344;28;20536;-87
2022/05/03 15:53:28;;;;;;;15.00;11.60;;;14.80;85.00;;;;;;5096295;28;20027;-88
2022/05/03 15:56:09;;;;;;;;;;;;;;;;;;;;;
2022/05/03 15:58:39;;;;;;;15.90;11.32;;;14.80;85.00;;;;;;5097854;28;20398;-88
2022/05/03 16:01:09;;;;;;;18.02;12.73;;;14.80;84.90;;;;;;5079705;28;20600;-88
2022/05/03 16:03:48;;;;;;;15.20;11.35;;;14.80;85.00;;;;;;5095817;28;20037;-88
2022/05/03 16:06:29;;;;;;;13.32;10.43;;;14.70;84.90;;;;;;5096165;28;20016;-87
2022/05/03 16:09:07;;;;;;;;;;;;;;;;;;;;;
2022/05/03 16:11:44;;;;;;;17.40;12.65;;;14.80;85.00;;;;;;5097251;28;20054;-88
2022/05/03 16:14:42;;;;;;;17.58;12.10;;;14.70;85.20;;;;;;5096826;28;20528;-91
2022/05/03 16:17:37;;;;;;;17.13;11.50;;;14.70;85.30;;;;;;5080736;28;20035;-90
2022/05/03 16:20:30;;;;;;;16.27;10.57;;;14.70;85.30;;;;;;5081801;28;20036;-90
2022/05/03 16:26:32;;;;;;;15.88;12.05;;;14.70;85.30;;;;;;5115199;28;20490;-89
2022/05/03 16:29:01;;;;;;;16.17;12.15;;;14.70;85.30;;;;;;5114878;28;20070;-88
2022/05/03 16:31:42;;;;;;;;;;;;;;;;;;;;;
2022/05/03 16:34:11;;;;;;;16.40;11.38;;;14.60;85.40;;;;;;5114647;28;20360;-87
2022/05/03 16:42:19;;;;;;;16.38;11.57;;;14.50;85.40;;;;;;5114168;28;20169;-85
2022/05/03 16:44:53;;;;;;;15.05;10.35;;;14.50;85.50;;;;;;5082138;28;20024;-86
2022/05/03 16:47:27;;;;;;;15.05;11.77;;;14.50;85.50;;;;;;5097767;28;20032;-87
2022/05/03 16:49:56;;;;;;;14.57;9.75;;;14.50;85.40;;;;;;5096671;28;20027;-86
2022/05/03 16:52:50;;;;;;;21.83;12.23;;;14.50;85.30;;;;;;5105131;28;20050;-87
2022/05/03 16:55:14;;;;;;;17.17;12.00;;;14.50;85.30;;;;;;5137204;27;20019;-85
2022/05/03 16:57:40;;;;;;;17.13;10.93;;;14.40;85.40;;;;;;5120680;27;20007;-86
2022/05/03 17:00:12;;;;;;;14.73;10.32;;;14.40;85.40;;;;;;5120717;28;20026;-86
2022/05/03 17:02:49;;;;;;;12.93;10.00;;;14.40;85.30;;;;;;5122583;28;20015;-82
2022/05/03 17:05:14;;;;;;;15.23;10.45;;;14.40;85.20;;;;;;5084434;28;20212;-88
2022/05/03 17:07:40;;;;;;;16.15;10.52;;;14.40;85.20;;;;;;5083244;28;20084;-86
2022/05/03 17:10:17;;;;;;;14.15;9.05;;;14.40;85.20;;;;;;5099491;28;20027;-88
2022/05/03 17:12:52;;;;;;;13.50;9.20;;;14.40;85.10;;;;;;5080487;28;20055;-87
2022/05/03 17:15:25;;;;;;;14.93;9.98;;;14.50;85.00;;;;;;5099281;28;20107;-86
2022/05/03 17:18:05;;;;;;;15.02;9.60;;;14.50;84.80;;;;;;5095995;28;20028;-86
2022/05/03 17:20:33;;;;;;;17.55;9.43;;;14.50;84.70;;;;;;5096098;28;20024;-88
2022/05/03 17:23:25;;;;;;;13.32;9.07;;;14.50;84.70;;;;;;5079611;28;20024;-88
2022/05/03 17:26:05;;;;;;;12.32;7.90;;;14.50;84.60;;;;;;5088175;28;20485;-87
2022/05/03 17:28:47;;;;;;;14.30;9.13;;;14.50;84.70;;;;;;5095761;28;20032;-87
2022/05/03 17:31:18;;;;;;;13.20;8.70;;;14.50;84.50;;;;;;5095953;28;20464;-87
2022/05/03 17:33:45;;;;;;;12.38;7.55;;;14.50;84.50;;;;;;5079214;28;20028;-86
2022/05/03 17:36:17;;;;;;;12.43;8.25;;;14.50;84.40;;;;;;5095858;28;20040;-87
2022/05/03 17:38:46;;;;;;;12.48;7.30;;;14.50;84.30;;;;;;5095697;28;20094;-87